Ancona, Illinois
Current Conditions -  °F | °C
As of 12:35 PM on Sunday 21 Dec 2014 (Local Time) from KPNT Reporting Station
Overcast Overcast  
Wind Chill: 29°   Ceiling: 3500
Heat Index: 38°   Visibility: 10mi
Dew Point: 32°   Wind: 15mph
Humidity: 80%   Direction: 180°S
Pressure: 30.14"   Gusts: 23mph
Location:  41.04°N, 88.87°W
Report Text: KPNT 211835Z AUTO 18013G20KT 10SM OVC035 03/00 A3014 RMK AO2 T00320001
Loading
Personal Weather Stations






























Interactive Weather Map New forecast layout! Learn more

10-Day Weather Forecast

Advertisements
Track Severe Weather on mobile